sensor_id;sensor_type;location;lat;lon;timestamp;temperature;humidity
22917;DHT22;11624;53.250;7.456;2022-11-14T00:02:00;13.11;59.74
22917;DHT22;11624;53.250;7.456;2022-11-14T00:04:47;12.79;60.86
22917;DHT22;11624;53.250;7.456;2022-11-14T00:07:34;12.96;60.20
22917;DHT22;11624;53.250;7.456;2022-11-14T00:10:21;13.03;59.99
22917;DHT22;11624;53.250;7.456;2022-11-14T00:13:08;12.97;60.25
22917;DHT22;11624;53.250;7.456;2022-11-14T00:15:56;12.95;60.34
22917;DHT22;11624;53.250;7.456;2022-11-14T00:18:43;12.97;60.40
22917;DHT22;11624;53.250;7.456;2022-11-14T00:21:30;12.94;60.64
22917;DHT22;11624;53.250;7.456;2022-11-14T00:24:17;13.01;60.52
22917;DHT22;11624;53.250;7.456;2022-11-14T00:27:04;13.11;60.26
22917;DHT22;11624;53.250;7.456;2022-11-14T00:29:50;13.16;60.25
22917;DHT22;11624;53.250;7.456;2022-11-14T00:32:38;13.09;60.43
22917;DHT22;11624;53.250;7.456;2022-11-14T00:35:25;13.15;60.35
22917;DHT22;11624;53.250;7.456;2022-11-14T00:38:13;12.95;60.98
22917;DHT22;11624;53.250;7.456;2022-11-14T00:41:00;13.14;60.38
22917;DHT22;11624;53.250;7.456;2022-11-14T00:43:47;13.11;60.33
22917;DHT22;11624;53.250;7.456;2022-11-14T00:46:34;13.07;60.38
22917;DHT22;11624;53.250;7.456;2022-11-14T00:49:22;13.04;60.54
22917;DHT22;11624;53.250;7.456;2022-11-14T00:52:09;13.08;60.48
22917;DHT22;11624;53.250;7.456;2022-11-14T00:54:56;13.05;60.51
22917;DHT22;11624;53.250;7.456;2022-11-14T00:57:43;13.02;60.61
22917;DHT22;11624;53.250;7.456;2022-11-14T01:00:30;13.04;60.48
22917;DHT22;11624;53.250;7.456;2022-11-14T01:03:17;12.97;60.70
22917;DHT22;11624;53.250;7.456;2022-11-14T01:06:07;13.00;60.52
22917;DHT22;11624;53.250;7.456;2022-11-14T01:08:54;12.97;60.47
22917;DHT22;11624;53.250;7.456;2022-11-14T01:11:41;12.93;60.57
22917;DHT22;11624;53.250;7.456;2022-11-14T01:14:28;12.91;60.55
22917;DHT22;11624;53.250;7.456;2022-11-14T01:17:14;12.87;60.71
22917;DHT22;11624;53.250;7.456;2022-11-14T01:20:01;12.81;60.89
22917;DHT22;11624;53.250;7.456;2022-11-14T01:22:49;12.78;61.01
22917;DHT22;11624;53.250;7.456;2022-11-14T01:25:37;12.74;61.34
22917;DHT22;11624;53.250;7.456;2022-11-14T01:28:24;12.70;61.74
22917;DHT22;11624;53.250;7.456;2022-11-14T01:31:14;12.70;61.54
22917;DHT22;11624;53.250;7.456;2022-11-14T01:34:01;12.65;61.96
22917;DHT22;11624;53.250;7.456;2022-11-14T01:36:48;12.62;62.21
22917;DHT22;11624;53.250;7.456;2022-11-14T01:39:36;12.69;61.99
22917;DHT22;11624;53.250;7.456;2022-11-14T01:42:23;12.70;62.02
22917;DHT22;11624;53.250;7.456;2022-11-14T01:45:46;12.73;61.73
22917;DHT22;11624;53.250;7.456;2022-11-14T01:48:38;12.70;61.97
22917;DHT22;11624;53.250;7.456;2022-11-14T01:51:28;12.72;62.07
22917;DHT22;11624;53.250;7.456;2022-11-14T01:54:20;12.67;62.11
22917;DHT22;11624;53.250;7.456;2022-11-14T01:57:10;12.69;62.23
22917;DHT22;11624;53.250;7.456;2022-11-14T02:00:03;12.69;62.20
22917;DHT22;11624;53.250;7.456;2022-11-14T02:02:51;12.69;62.21
22917;DHT22;11624;53.250;7.456;2022-11-14T02:05:39;12.65;62.56
22917;DHT22;11624;53.250;7.456;2022-11-14T02:08:26;12.69;62.51
22917;DHT22;11624;53.250;7.456;2022-11-14T02:11:13;12.71;62.61
22917;DHT22;11624;53.250;7.456;2022-11-14T02:14:02;12.77;62.61
22917;DHT22;11624;53.250;7.456;2022-11-14T02:16:48;12.80;62.59
22917;DHT22;11624;53.250;7.456;2022-11-14T02:20:05;12.75;62.63
22917;DHT22;11624;53.250;7.456;2022-11-14T02:22:52;12.71;62.74
22917;DHT22;11624;53.250;7.456;2022-11-14T02:25:39;12.74;62.77
22917;DHT22;11624;53.250;7.456;2022-11-14T02:28:26;12.70;62.99
22917;DHT22;11624;53.250;7.456;2022-11-14T02:31:14;12.74;62.85
22917;DHT22;11624;53.250;7.456;2022-11-14T02:34:01;12.81;62.61
22917;DHT22;11624;53.250;7.456;2022-11-14T02:36:49;12.87;62.41
22917;DHT22;11624;53.250;7.456;2022-11-14T02:39:36;12.90;62.40
22917;DHT22;11624;53.250;7.456;2022-11-14T02:42:23;12.92;62.31
22917;DHT22;11624;53.250;7.456;2022-11-14T02:45:10;12.93;62.22
22917;DHT22;11624;53.250;7.456;2022-11-14T02:47:57;12.96;62.15
22917;DHT22;11624;53.250;7.456;2022-11-14T02:50:47;13.00;61.99
22917;DHT22;11624;53.250;7.456;2022-11-14T02:53:35;12.91;62.18
22917;DHT22;11624;53.250;7.456;2022-11-14T02:56:22;12.94;62.09
22917;DHT22;11624;53.250;7.456;2022-11-14T02:59:08;12.93;61.85
22917;DHT22;11624;53.250;7.456;2022-11-14T03:01:55;12.95;61.50
22917;DHT22;11624;53.250;7.456;2022-11-14T03:04:42;12.87;61.46
22917;DHT22;11624;53.250;7.456;2022-11-14T03:07:29;12.87;61.26
22917;DHT22;11624;53.250;7.456;2022-11-14T03:10:17;12.85;61.19
22917;DHT22;11624;53.250;7.456;2022-11-14T03:13:04;12.85;61.07
22917;DHT22;11624;53.250;7.456;2022-11-14T03:15:51;12.81;61.10
22917;DHT22;11624;53.250;7.456;2022-11-14T03:18:38;12.79;60.99
22917;DHT22;11624;53.250;7.456;2022-11-14T03:21:25;12.67;61.23
22917;DHT22;11624;53.250;7.456;2022-11-14T03:24:11;12.70;61.16
22917;DHT22;11624;53.250;7.456;2022-11-14T03:27:00;12.70;61.18
22917;DHT22;11624;53.250;7.456;2022-11-14T03:29:46;12.76;61.08
22917;DHT22;11624;53.250;7.456;2022-11-14T03:32:33;12.76;60.94
22917;DHT22;11624;53.250;7.456;2022-11-14T03:35:20;12.65;61.14
22917;DHT22;11624;53.250;7.456;2022-11-14T03:38:06;12.63;61.18
22917;DHT22;11624;53.250;7.456;2022-11-14T03:40:53;12.66;61.06
22917;DHT22;11624;53.250;7.456;2022-11-14T03:43:41;12.63;61.16
22917;DHT22;11624;53.250;7.456;2022-11-14T03:46:28;12.62;61.19
22917;DHT22;11624;53.250;7.456;2022-11-14T03:49:15;12.60;61.09
22917;DHT22;11624;53.250;7.456;2022-11-14T03:52:02;12.65;60.96
22917;DHT22;11624;53.250;7.456;2022-11-14T03:54:48;12.72;60.80
22917;DHT22;11624;53.250;7.456;2022-11-14T03:57:35;12.66;60.90
22917;DHT22;11624;53.250;7.456;2022-11-14T04:00:23;12.70;60.73
22917;DHT22;11624;53.250;7.456;2022-11-14T04:03:12;12.64;60.18
22917;DHT22;11624;53.250;7.456;2022-11-14T04:05:58;12.66;60.49
22917;DHT22;11624;53.250;7.456;2022-11-14T04:08:45;12.67;60.36
22917;DHT22;11624;53.250;7.456;2022-11-14T04:11:32;12.58;60.38
22917;DHT22;11624;53.250;7.456;2022-11-14T04:14:19;12.56;60.35
22917;DHT22;11624;53.250;7.456;2022-11-14T04:17:07;12.36;60.68
22917;DHT22;11624;53.250;7.456;2022-11-14T04:19:54;12.46;60.51
22917;DHT22;11624;53.250;7.456;2022-11-14T04:22:40;12.28;61.05
22917;DHT22;11624;53.250;7.456;2022-11-14T04:25:27;12.21;61.15
22917;DHT22;11624;53.250;7.456;2022-11-14T04:28:14;12.26;61.02
22917;DHT22;11624;53.250;7.456;2022-11-14T04:31:01;12.37;60.71
22917;DHT22;11624;53.250;7.456;2022-11-14T04:33:49;12.43;60.62
22917;DHT22;11624;53.250;7.456;2022-11-14T04:36:36;12.32;60.89
22917;DHT22;11624;53.250;7.456;2022-11-14T04:39:23;12.36;60.67
22917;DHT22;11624;53.250;7.456;2022-11-14T04:42:10;12.26;61.20
22917;DHT22;11624;53.250;7.456;2022-11-14T04:44:56;12.32;61.00
22917;DHT22;11624;53.250;7.456;2022-11-14T04:47:44;12.28;61.17
22917;DHT22;11624;53.250;7.456;2022-11-14T04:50:32;12.28;61.14
22917;DHT22;11624;53.250;7.456;2022-11-14T04:53:18;12.29;61.26
22917;DHT22;11624;53.250;7.456;2022-11-14T04:56:06;12.26;61.09
22917;DHT22;11624;53.250;7.456;2022-11-14T04:58:53;12.25;61.12
22917;DHT22;11624;53.250;7.456;2022-11-14T05:01:39;12.22;61.09
22917;DHT22;11624;53.250;7.456;2022-11-14T05:04:26;12.26;61.02
22917;DHT22;11624;53.250;7.456;2022-11-14T05:07:14;12.21;61.06
22917;DHT22;11624;53.250;7.456;2022-11-14T05:10:01;12.15;61.25
22917;DHT22;11624;53.250;7.456;2022-11-14T05:12:52;12.01;61.60
22917;DHT22;11624;53.250;7.456;2022-11-14T05:15:38;11.94;61.95
22917;DHT22;11624;53.250;7.456;2022-11-14T05:18:26;11.91;62.06
22917;DHT22;11624;53.250;7.456;2022-11-14T05:21:14;12.06;61.66
22917;DHT22;11624;53.250;7.456;2022-11-14T05:24:03;12.17;61.01
22917;DHT22;11624;53.250;7.456;2022-11-14T05:26:49;12.22;61.05
22917;DHT22;11624;53.250;7.456;2022-11-14T05:29:36;12.15;61.05
22917;DHT22;11624;53.250;7.456;2022-11-14T05:32:23;12.26;61.05
22917;DHT22;11624;53.250;7.456;2022-11-14T05:35:10;12.27;60.90
22917;DHT22;11624;53.250;7.456;2022-11-14T05:37:59;12.20;60.96
22917;DHT22;11624;53.250;7.456;2022-11-14T05:40:47;11.77;61.21
22917;DHT22;11624;53.250;7.456;2022-11-14T05:43:34;11.93;61.23
22917;DHT22;11624;53.250;7.456;2022-11-14T05:46:21;11.78;61.37
22917;DHT22;11624;53.250;7.456;2022-11-14T05:49:07;11.66;61.84
22917;DHT22;11624;53.250;7.456;2022-11-14T05:51:54;11.70;61.63
22917;DHT22;11624;53.250;7.456;2022-11-14T05:54:40;11.70;61.51
22917;DHT22;11624;53.250;7.456;2022-11-14T05:57:29;11.79;61.19
22917;DHT22;11624;53.250;7.456;2022-11-14T06:00:16;11.66;61.56
22917;DHT22;11624;53.250;7.456;2022-11-14T06:03:03;11.73;61.30
22917;DHT22;11624;53.250;7.456;2022-11-14T06:05:50;11.74;61.18
22917;DHT22;11624;53.250;7.456;2022-11-14T06:08:37;11.62;61.42
22917;DHT22;11624;53.250;7.456;2022-11-14T06:11:23;11.45;61.92
22917;DHT22;11624;53.250;7.456;2022-11-14T06:14:12;11.51;61.67
22917;DHT22;11624;53.250;7.456;2022-11-14T06:16:58;11.44;61.94
22917;DHT22;11624;53.250;7.456;2022-11-14T06:19:45;11.54;61.47
22917;DHT22;11624;53.250;7.456;2022-11-14T06:22:32;11.52;61.63
22917;DHT22;11624;53.250;7.456;2022-11-14T06:25:20;11.60;61.43
22917;DHT22;11624;53.250;7.456;2022-11-14T06:28:06;11.61;61.36
22917;DHT22;11624;53.250;7.456;2022-11-14T06:30:57;11.69;60.96
22917;DHT22;11624;53.250;7.456;2022-11-14T06:33:45;11.73;60.91
22917;DHT22;11624;53.250;7.456;2022-11-14T06:36:32;11.74;60.88
22917;DHT22;11624;53.250;7.456;2022-11-14T06:39:19;11.59;61.38
22917;DHT22;11624;53.250;7.456;2022-11-14T06:42:06;11.68;61.04
22917;DHT22;11624;53.250;7.456;2022-11-14T06:44:52;11.75;60.85
22917;DHT22;11624;53.250;7.456;2022-11-14T06:47:41;11.75;60.84
22917;DHT22;11624;53.250;7.456;2022-11-14T06:50:28;11.66;61.19
22917;DHT22;11624;53.250;7.456;2022-11-14T06:53:15;11.72;60.86
22917;DHT22;11624;53.250;7.456;2022-11-14T06:56:03;11.51;61.58
22917;DHT22;11624;53.250;7.456;2022-11-14T06:58:50;11.73;61.06
22917;DHT22;11624;53.250;7.456;2022-11-14T07:01:37;11.84;60.86
22917;DHT22;11624;53.250;7.456;2022-11-14T07:04:25;11.78;60.90
22917;DHT22;11624;53.250;7.456;2022-11-14T07:07:12;11.85;60.66
22917;DHT22;11624;53.250;7.456;2022-11-14T07:09:59;11.83;60.58
22917;DHT22;11624;53.250;7.456;2022-11-14T07:12:46;11.84;60.62
22917;DHT22;11624;53.250;7.456;2022-11-14T07:15:33;11.89;60.38
22917;DHT22;11624;53.250;7.456;2022-11-14T07:18:20;11.77;60.93
22917;DHT22;11624;53.250;7.456;2022-11-14T07:21:08;11.78;60.85
22917;DHT22;11624;53.250;7.456;2022-11-14T07:23:57;11.83;60.75
22917;DHT22;11624;53.250;7.456;2022-11-14T07:26:44;11.86;60.65
22917;DHT22;11624;53.250;7.456;2022-11-14T07:29:31;11.53;61.60
22917;DHT22;11624;53.250;7.456;2022-11-14T07:32:18;11.61;61.38
22917;DHT22;11624;53.250;7.456;2022-11-14T07:35:06;11.75;61.05
22917;DHT22;11624;53.250;7.456;2022-11-14T07:38:00;11.91;60.51
22917;DHT22;11624;53.250;7.456;2022-11-14T07:40:53;11.93;60.39
22917;DHT22;11624;53.250;7.456;2022-11-14T07:43:45;11.88;60.75
22917;DHT22;11624;53.250;7.456;2022-11-14T07:46:32;11.94;60.65
22917;DHT22;11624;53.250;7.456;2022-11-14T07:49:18;11.98;60.64
22917;DHT22;11624;53.250;7.456;2022-11-14T07:52:05;11.98;60.49
22917;DHT22;11624;53.250;7.456;2022-11-14T07:54:53;12.00;60.56
22917;DHT22;11624;53.250;7.456;2022-11-14T07:57:40;12.10;60.28
22917;DHT22;11624;53.250;7.456;2022-11-14T08:00:33;11.67;60.96
22917;DHT22;11624;53.250;7.456;2022-11-14T08:03:20;11.90;60.54
22917;DHT22;11624;53.250;7.456;2022-11-14T08:06:08;12.02;60.42
22917;DHT22;11624;53.250;7.456;2022-11-14T08:08:56;12.16;60.36
22917;DHT22;11624;53.250;7.456;2022-11-14T08:11:44;12.12;60.24
22917;DHT22;11624;53.250;7.456;2022-11-14T08:14:33;12.23;59.99
22917;DHT22;11624;53.250;7.456;2022-11-14T08:17:21;12.29;59.92
22917;DHT22;11624;53.250;7.456;2022-11-14T08:20:09;12.28;60.01
22917;DHT22;11624;53.250;7.456;2022-11-14T08:23:00;12.29;59.36
22917;DHT22;11624;53.250;7.456;2022-11-14T08:25:48;12.14;60.06
22917;DHT22;11624;53.250;7.456;2022-11-14T08:28:36;12.28;59.90
22917;DHT22;11624;53.250;7.456;2022-11-14T08:31:23;12.40;59.67
22917;DHT22;11624;53.250;7.456;2022-11-14T08:34:10;12.41;59.66
22917;DHT22;11624;53.250;7.456;2022-11-14T08:36:57;12.42;59.69
22917;DHT22;11624;53.250;7.456;2022-11-14T08:39:44;12.48;59.51
22917;DHT22;11624;53.250;7.456;2022-11-14T08:42:31;12.49;59.44
22917;DHT22;11624;53.250;7.456;2022-11-14T08:45:19;12.57;59.30
22917;DHT22;11624;53.250;7.456;2022-11-14T08:48:06;12.64;59.28
22917;DHT22;11624;53.250;7.456;2022-11-14T08:50:53;12.70;59.03
22917;DHT22;11624;53.250;7.456;2022-11-14T08:53:39;12.52;58.61
22917;DHT22;11624;53.250;7.456;2022-11-14T08:56:26;12.62;58.84
22917;DHT22;11624;53.250;7.456;2022-11-14T08:59:13;12.70;58.91
22917;DHT22;11624;53.250;7.456;2022-11-14T09:02:01;12.94;58.64
22917;DHT22;11624;53.250;7.456;2022-11-14T09:04:47;13.25;58.59
22917;DHT22;11624;53.250;7.456;2022-11-14T09:07:34;13.60;58.35
22917;DHT22;11624;53.250;7.456;2022-11-14T09:10:21;14.11;58.87
22917;DHT22;11624;53.250;7.456;2022-11-14T09:13:08;14.55;57.13
22917;DHT22;11624;53.250;7.456;2022-11-14T09:15:55;14.99;55.29
22917;DHT22;11624;53.250;7.456;2022-11-14T09:18:43;14.97;53.77
22917;DHT22;11624;53.250;7.456;2022-11-14T09:21:30;15.08;53.59
22917;DHT22;11624;53.250;7.456;2022-11-14T09:24:17;15.02;52.30
22917;DHT22;11624;53.250;7.456;2022-11-14T09:27:04;14.74;52.24
22917;DHT22;11624;53.250;7.456;2022-11-14T09:29:50;14.51;53.32
22917;DHT22;11624;53.250;7.456;2022-11-14T09:32:37;14.42;53.22
22917;DHT22;11624;53.250;7.456;2022-11-14T09:35:25;13.93;53.78
22917;DHT22;11624;53.250;7.456;2022-11-14T09:38:12;13.71;54.40
22917;DHT22;11624;53.250;7.456;2022-11-14T09:41:05;13.63;54.62
22917;DHT22;11624;53.250;7.456;2022-11-14T09:44:21;13.62;54.69
22917;DHT22;11624;53.250;7.456;2022-11-14T09:47:14;13.23;55.82
22917;DHT22;11624;53.250;7.456;2022-11-14T09:50:10;13.30;56.01
22917;DHT22;11624;53.250;7.456;2022-11-14T09:53:04;13.32;55.83
22917;DHT22;11624;53.250;7.456;2022-11-14T09:55:52;13.10;56.33
22917;DHT22;11624;53.250;7.456;2022-11-14T09:58:40;13.21;56.64
22917;DHT22;11624;53.250;7.456;2022-11-14T10:01:35;13.41;56.00
22917;DHT22;11624;53.250;7.456;2022-11-14T10:04:35;14.13;54.80
22917;DHT22;11624;53.250;7.456;2022-11-14T10:07:29;14.70;54.60
22917;DHT22;11624;53.250;7.456;2022-11-14T10:10:32;14.91;52.25
22917;DHT22;11624;53.250;7.456;2022-11-14T10:13:41;15.10;51.72
22917;DHT22;11624;53.250;7.456;2022-11-14T10:16:36;15.07;51.73
22917;DHT22;11624;53.250;7.456;2022-11-14T10:19:33;15.29;52.15
22917;DHT22;11624;53.250;7.456;2022-11-14T10:22:44;15.96;51.43
22917;DHT22;11624;53.250;7.456;2022-11-14T10:25:42;16.18;49.64
22917;DHT22;11624;53.250;7.456;2022-11-14T10:28:46;16.08;50.62
22917;DHT22;11624;53.250;7.456;2022-11-14T10:31:42;16.56;49.21
22917;DHT22;11624;53.250;7.456;2022-11-14T10:34:35;16.93;49.30
22917;DHT22;11624;53.250;7.456;2022-11-14T10:37:30;17.41;48.20
22917;DHT22;11624;53.250;7.456;2022-11-14T10:40:21;17.69;45.82
22917;DHT22;11624;53.250;7.456;2022-11-14T10:43:19;17.67;46.19
22917;DHT22;11624;53.250;7.456;2022-11-14T10:46:11;17.45;45.12
22917;DHT22;11624;53.250;7.456;2022-11-14T10:48:59;17.20;46.33
22917;DHT22;11624;53.250;7.456;2022-11-14T10:51:50;17.30;46.11
22917;DHT22;11624;53.250;7.456;2022-11-14T10:54:42;17.39;46.59
22917;DHT22;11624;53.250;7.456;2022-11-14T10:57:31;17.33;45.44
22917;DHT22;11624;53.250;7.456;2022-11-14T11:00:21;17.45;46.37
22917;DHT22;11624;53.250;7.456;2022-11-14T11:03:07;17.79;45.72
22917;DHT22;11624;53.250;7.456;2022-11-14T11:05:54;18.11;43.92
22917;DHT22;11624;53.250;7.456;2022-11-14T11:08:42;17.93;44.06
22917;DHT22;11624;53.250;7.456;2022-11-14T11:11:54;18.27;43.87
22917;DHT22;11624;53.250;7.456;2022-11-14T11:14:42;18.72;44.05
22917;DHT22;11624;53.250;7.456;2022-11-14T11:17:30;19.14;41.45
22917;DHT22;11624;53.250;7.456;2022-11-14T11:20:29;19.61;42.32
22917;DHT22;11624;53.250;7.456;2022-11-14T11:23:19;20.07;40.30
22917;DHT22;11624;53.250;7.456;2022-11-14T11:26:16;20.40;40.10
22917;DHT22;11624;53.250;7.456;2022-11-14T11:29:06;20.07;39.56
22917;DHT22;11624;53.250;7.456;2022-11-14T11:31:56;20.16;39.23
22917;DHT22;11624;53.250;7.456;2022-11-14T11:34:44;20.35;39.10
22917;DHT22;11624;53.250;7.456;2022-11-14T11:37:35;20.72;39.33
22917;DHT22;11624;53.250;7.456;2022-11-14T11:40:26;20.83;37.98
22917;DHT22;11624;53.250;7.456;2022-11-14T11:43:19;19.94;38.40
22917;DHT22;11624;53.250;7.456;2022-11-14T11:46:28;19.45;39.76
22917;DHT22;11624;53.250;7.456;2022-11-14T11:49:23;19.69;39.80
22917;DHT22;11624;53.250;7.456;2022-11-14T11:52:26;19.98;39.58
22917;DHT22;11624;53.250;7.456;2022-11-14T11:55:17;20.22;38.82
22917;DHT22;11624;53.250;7.456;2022-11-14T11:58:11;20.81;38.71
22917;DHT22;11624;53.250;7.456;2022-11-14T12:01:02;21.02;36.87
22917;DHT22;11624;53.250;7.456;2022-11-14T12:03:51;20.76;36.85
22917;DHT22;11624;53.250;7.456;2022-11-14T12:06:42;20.61;36.98
22917;DHT22;11624;53.250;7.456;2022-11-14T12:09:37;20.87;36.74
22917;DHT22;11624;53.250;7.456;2022-11-14T12:13:10;20.78;37.17
22917;DHT22;11624;53.250;7.456;2022-11-14T12:16:09;20.79;37.10
22917;DHT22;11624;53.250;7.456;2022-11-14T12:19:20;20.87;37.17
22917;DHT22;11624;53.250;7.456;2022-11-14T12:22:35;20.62;37.17
22917;DHT22;11624;53.250;7.456;2022-11-14T12:25:38;20.86;37.62
22917;DHT22;11624;53.250;7.456;2022-11-14T12:28:47;20.20;37.68
22917;DHT22;11624;53.250;7.456;2022-11-14T12:31:44;20.57;37.79
22917;DHT22;11624;53.250;7.456;2022-11-14T12:34:33;20.45;37.23
22917;DHT22;11624;53.250;7.456;2022-11-14T12:37:29;20.69;37.32
22917;DHT22;11624;53.250;7.456;2022-11-14T12:40:23;20.87;37.43
22917;DHT22;11624;53.250;7.456;2022-11-14T12:43:29;20.92;36.20
22917;DHT22;11624;53.250;7.456;2022-11-14T12:46:22;20.81;36.85
22917;DHT22;11624;53.250;7.456;2022-11-14T12:49:36;20.20;37.55
22917;DHT22;11624;53.250;7.456;2022-11-14T12:52:44;19.88;38.51
22917;DHT22;11624;53.250;7.456;2022-11-14T12:56:08;20.25;37.81
22917;DHT22;11624;53.250;7.456;2022-11-14T12:59:09;20.05;38.30
22917;DHT22;11624;53.250;7.456;2022-11-14T13:02:21;20.36;38.11
22917;DHT22;11624;53.250;7.456;2022-11-14T13:05:24;20.48;38.33
22917;DHT22;11624;53.250;7.456;2022-11-14T13:11:36;20.90;37.39
22917;DHT22;11624;53.250;7.456;2022-11-14T13:14:53;20.89;36.91
22917;DHT22;11624;53.250;7.456;2022-11-14T13:18:12;20.74;37.18
22917;DHT22;11624;53.250;7.456;2022-11-14T13:21:20;20.71;37.24
22917;DHT22;11624;53.250;7.456;2022-11-14T13:31:48;20.86;37.27
22917;DHT22;11624;53.250;7.456;2022-11-14T13:34:45;20.72;36.84
22917;DHT22;11624;53.250;7.456;2022-11-14T13:37:56;20.20;38.04
22917;DHT22;11624;53.250;7.456;2022-11-14T13:40:51;19.57;39.36
22917;DHT22;11624;53.250;7.456;2022-11-14T13:43:55;19.26;40.01
22917;DHT22;11624;53.250;7.456;2022-11-14T13:46:59;18.71;40.83
22917;DHT22;11624;53.250;7.456;2022-11-14T13:49:57;18.42;41.41
22917;DHT22;11624;53.250;7.456;2022-11-14T13:52:47;18.09;42.52
22917;DHT22;11624;53.250;7.456;2022-11-14T13:55:45;17.67;43.48
22917;DHT22;11624;53.250;7.456;2022-11-14T14:02:21;17.04;45.82
22917;DHT22;11624;53.250;7.456;2022-11-14T14:05:23;17.13;46.06
22917;DHT22;11624;53.250;7.456;2022-11-14T14:08:20;17.17;46.37
22917;DHT22;11624;53.250;7.456;2022-11-14T14:11:25;17.29;46.60
22917;DHT22;11624;53.250;7.456;2022-11-14T14:14:27;17.65;45.87
22917;DHT22;11624;53.250;7.456;2022-11-14T14:17:23;17.94;45.17
22917;DHT22;11624;53.250;7.456;2022-11-14T14:20:19;18.09;44.16
22917;DHT22;11624;53.250;7.456;2022-11-14T14:23:16;18.05;44.00
22917;DHT22;11624;53.250;7.456;2022-11-14T14:26:16;17.96;44.30
22917;DHT22;11624;53.250;7.456;2022-11-14T14:29:18;17.87;44.29
22917;DHT22;11624;53.250;7.456;2022-11-14T14:32:11;17.80;44.61
22917;DHT22;11624;53.250;7.456;2022-11-14T14:34:59;17.78;44.70
22917;DHT22;11624;53.250;7.456;2022-11-14T14:37:58;17.63;44.55
22917;DHT22;11624;53.250;7.456;2022-11-14T14:40:46;17.61;44.90
22917;DHT22;11624;53.250;7.456;2022-11-14T14:43:34;17.74;44.27
22917;DHT22;11624;53.250;7.456;2022-11-14T14:46:31;17.39;44.57
22917;DHT22;11624;53.250;7.456;2022-11-14T14:49:21;17.23;44.97
22917;DHT22;11624;53.250;7.456;2022-11-14T14:52:20;16.80;45.50
22917;DHT22;11624;53.250;7.456;2022-11-14T14:55:19;16.41;46.62
22917;DHT22;11624;53.250;7.456;2022-11-14T14:58:14;15.93;48.08
22917;DHT22;11624;53.250;7.456;2022-11-14T15:01:09;15.56;49.24
22917;DHT22;11624;53.250;7.456;2022-11-14T15:04:01;15.43;49.36
22917;DHT22;11624;53.250;7.456;2022-11-14T15:06:49;15.26;49.89
22917;DHT22;11624;53.250;7.456;2022-11-14T15:09:50;15.06;49.89
22917;DHT22;11624;53.250;7.456;2022-11-14T15:12:39;14.91;50.71
22917;DHT22;11624;53.250;7.456;2022-11-14T15:15:26;14.67;51.41
22917;DHT22;11624;53.250;7.456;2022-11-14T15:18:19;14.58;51.26
22917;DHT22;11624;53.250;7.456;2022-11-14T15:21:14;14.36;52.18
22917;DHT22;11624;53.250;7.456;2022-11-14T15:24:12;14.18;52.56
22917;DHT22;11624;53.250;7.456;2022-11-14T15:27:03;14.01;53.48
22917;DHT22;11624;53.250;7.456;2022-11-14T15:29:52;13.90;53.73
22917;DHT22;11624;53.250;7.456;2022-11-14T15:32:47;13.83;53.39
22917;DHT22;11624;53.250;7.456;2022-11-14T15:35:35;13.79;53.78
22917;DHT22;11624;53.250;7.456;2022-11-14T15:38:22;13.71;53.90
22917;DHT22;11624;53.250;7.456;2022-11-14T15:41:30;13.66;53.95
22917;DHT22;11624;53.250;7.456;2022-11-14T15:44:34;13.55;53.84
22917;DHT22;11624;53.250;7.456;2022-11-14T15:47:22;13.43;54.62
22917;DHT22;11624;53.250;7.456;2022-11-14T15:50:26;13.32;54.42
22917;DHT22;11624;53.250;7.456;2022-11-14T15:53:20;13.26;54.63
22917;DHT22;11624;53.250;7.456;2022-11-14T15:56:10;13.18;55.04
22917;DHT22;11624;53.250;7.456;2022-11-14T15:58:57;13.07;55.48
22917;DHT22;11624;53.250;7.456;2022-11-14T16:01:48;13.06;55.16
22917;DHT22;11624;53.250;7.456;2022-11-14T16:04:36;12.97;55.50
22917;DHT22;11624;53.250;7.456;2022-11-14T16:07:31;12.90;55.54
22917;DHT22;11624;53.250;7.456;2022-11-14T16:10:19;12.86;55.73
22917;DHT22;11624;53.250;7.456;2022-11-14T16:13:06;12.75;56.00
22917;DHT22;11624;53.250;7.456;2022-11-14T16:15:55;12.65;56.26
22917;DHT22;11624;53.250;7.456;2022-11-14T16:18:43;12.62;56.23
22917;DHT22;11624;53.250;7.456;2022-11-14T16:21:30;12.58;56.29
22917;DHT22;11624;53.250;7.456;2022-11-14T16:24:18;12.56;56.30
22917;DHT22;11624;53.250;7.456;2022-11-14T16:27:05;12.49;56.64
22917;DHT22;11624;53.250;7.456;2022-11-14T16:29:52;12.44;56.82
22917;DHT22;11624;53.250;7.456;2022-11-14T16:32:40;12.38;56.78
22917;DHT22;11624;53.250;7.456;2022-11-14T16:35:32;12.35;56.93
22917;DHT22;11624;53.250;7.456;2022-11-14T16:38:19;12.30;57.00
22917;DHT22;11624;53.250;7.456;2022-11-14T16:41:06;12.27;57.30
22917;DHT22;11624;53.250;7.456;2022-11-14T16:43:53;12.23;57.45
22917;DHT22;11624;53.250;7.456;2022-11-14T16:46:40;12.16;57.71
22917;DHT22;11624;53.250;7.456;2022-11-14T16:49:27;12.14;57.81
22917;DHT22;11624;53.250;7.456;2022-11-14T16:52:15;12.05;58.17
22917;DHT22;11624;53.250;7.456;2022-11-14T16:55:04;11.96;58.67
22917;DHT22;11624;53.250;7.456;2022-11-14T16:57:51;11.98;58.35
22917;DHT22;11624;53.250;7.456;2022-11-14T17:00:41;11.96;58.38
22917;DHT22;11624;53.250;7.456;2022-11-14T17:03:30;11.85;58.75
22917;DHT22;11624;53.250;7.456;2022-11-14T17:06:18;11.88;58.81
22917;DHT22;11624;53.250;7.456;2022-11-14T17:09:06;11.87;58.76
22917;DHT22;11624;53.250;7.456;2022-11-14T17:11:53;11.82;58.86
22917;DHT22;11624;53.250;7.456;2022-11-14T17:14:39;11.71;59.34
22917;DHT22;11624;53.250;7.456;2022-11-14T17:17:26;11.76;59.05
22917;DHT22;11624;53.250;7.456;2022-11-14T17:20:13;11.73;59.05
22917;DHT22;11624;53.250;7.456;2022-11-14T17:23:00;11.70;59.06
22917;DHT22;11624;53.250;7.456;2022-11-14T17:25:48;11.67;59.13
22917;DHT22;11624;53.250;7.456;2022-11-14T17:28:35;11.66;59.21
22917;DHT22;11624;53.250;7.456;2022-11-14T17:31:22;11.56;59.51
22917;DHT22;11624;53.250;7.456;2022-11-14T17:34:09;11.55;59.71
22917;DHT22;11624;53.250;7.456;2022-11-14T17:36:57;11.54;59.73
22917;DHT22;11624;53.250;7.456;2022-11-14T17:39:44;11.54;59.63
22917;DHT22;11624;53.250;7.456;2022-11-14T17:42:32;11.55;59.51
22917;DHT22;11624;53.250;7.456;2022-11-14T17:45:19;11.51;59.57
22917;DHT22;11624;53.250;7.456;2022-11-14T17:48:06;11.51;59.86
22917;DHT22;11624;53.250;7.456;2022-11-14T17:50:53;11.48;59.89
22917;DHT22;11624;53.250;7.456;2022-11-14T17:53:40;11.47;59.90
22917;DHT22;11624;53.250;7.456;2022-11-14T17:56:27;11.46;59.99
22917;DHT22;11624;53.250;7.456;2022-11-14T17:59:15;11.45;59.90
22917;DHT22;11624;53.250;7.456;2022-11-14T18:02:02;11.45;59.98
22917;DHT22;11624;53.250;7.456;2022-11-14T18:04:49;11.43;60.25
22917;DHT22;11624;53.250;7.456;2022-11-14T18:07:37;11.41;60.30
22917;DHT22;11624;53.250;7.456;2022-11-14T18:10:23;11.40;60.32
22917;DHT22;11624;53.250;7.456;2022-11-14T18:13:10;11.39;60.43